createdAt,value
2023-05-04T00:02:17.058Z,11.93
2023-05-04T00:04:45.635Z,12.10
2023-05-04T00:07:15.497Z,10.97
2023-05-04T00:09:43.869Z,11.50
2023-05-04T00:12:12.591Z,11.23
2023-05-04T00:14:41.036Z,12.53
2023-05-04T00:17:09.508Z,11.90
2023-05-04T00:19:40.145Z,12.13
2023-05-04T00:22:08.613Z,12.07
2023-05-04T00:24:38.851Z,12.30
2023-05-04T00:27:07.236Z,11.40
2023-05-04T00:29:35.677Z,12.17
2023-05-04T00:32:04.107Z,12.77
2023-05-04T00:34:34.145Z,13.57
2023-05-04T00:37:02.970Z,12.13
2023-05-04T00:39:31.491Z,13.00
2023-05-04T00:42:01.758Z,12.30
2023-05-04T00:44:30.330Z,11.90
2023-05-04T00:46:59.050Z,11.93
2023-05-04T00:49:28.228Z,12.40
2023-05-04T00:51:56.905Z,12.83
2023-05-04T00:54:25.966Z,12.87
2023-05-04T00:56:54.746Z,13.50
2023-05-04T00:59:24.509Z,14.73
2023-05-04T01:01:52.954Z,13.07
2023-05-04T01:04:21.567Z,13.43
2023-05-04T01:06:50.837Z,13.20
2023-05-04T01:09:24.139Z,15.00
2023-05-04T01:11:56.726Z,13.67
2023-05-04T01:14:26.955Z,13.73
2023-05-04T01:16:56.761Z,14.23
2023-05-04T01:19:27.606Z,13.60
2023-05-04T01:21:57.580Z,14.50
2023-05-04T01:24:26.778Z,12.50
2023-05-04T01:26:58.841Z,14.83
2023-05-04T01:29:33.738Z,13.83
2023-05-04T01:32:03.717Z,13.80
2023-05-04T01:34:32.175Z,15.00
2023-05-04T01:37:03.789Z,14.47
2023-05-04T01:39:32.110Z,13.47
2023-05-04T01:42:02.404Z,14.43
2023-05-04T01:44:31.063Z,14.90
2023-05-04T01:46:59.645Z,13.60
2023-05-04T01:49:28.027Z,15.17
2023-05-04T01:51:56.436Z,15.10
2023-05-04T01:54:27.764Z,16.77
2023-05-04T01:56:56.136Z,15.97
2023-05-04T01:59:24.496Z,15.43
2023-05-04T02:01:52.925Z,14.80
2023-05-04T02:04:21.336Z,15.60
2023-05-04T02:06:49.769Z,16.73
2023-05-04T02:09:19.256Z,15.57
2023-05-04T02:11:49.010Z,15.70
2023-05-04T02:14:17.419Z,17.57
2023-05-04T02:16:45.806Z,17.67
2023-05-04T02:19:14.261Z,17.07
2023-05-04T02:21:44.226Z,17.43
2023-05-04T02:24:12.623Z,18.70
2023-05-04T02:26:40.976Z,18.60
2023-05-04T02:29:10.956Z,18.97
2023-05-04T02:31:40.413Z,19.67
2023-05-04T02:34:11.735Z,19.40
2023-05-04T02:36:48.322Z,19.17
2023-05-04T02:39:17.462Z,17.43
2023-05-04T02:41:45.912Z,17.53
2023-05-04T02:44:15.739Z,18.60
2023-05-04T02:46:44.145Z,19.97
2023-05-04T02:49:12.513Z,21.63
2023-05-04T02:51:41.478Z,19.50
2023-05-04T02:54:09.915Z,19.63
2023-05-04T02:56:38.311Z,22.50
2023-05-04T02:59:06.761Z,20.40
2023-05-04T03:01:36.568Z,21.03
2023-05-04T03:04:04.989Z,22.60
2023-05-04T03:06:33.472Z,22.77
2023-05-04T03:09:05.553Z,24.40
2023-05-04T03:11:33.908Z,22.53
2023-05-04T03:14:02.421Z,21.80
2023-05-04T03:16:30.919Z,23.63
2023-05-04T03:19:00.788Z,24.10
2023-05-04T03:21:29.754Z,23.27
2023-05-04T03:23:58.189Z,25.37
2023-05-04T03:26:26.612Z,25.27
2023-05-04T03:28:59.748Z,23.90
2023-05-04T03:31:28.168Z,26.23
2023-05-04T03:33:57.608Z,25.47
2023-05-04T03:36:27.314Z,25.60
2023-05-04T03:38:55.740Z,24.90
2023-05-04T03:41:24.146Z,25.37
2023-05-04T03:43:52.532Z,26.50
2023-05-04T03:46:21.243Z,23.63
2023-05-04T03:48:49.659Z,23.70
2023-05-04T03:51:19.926Z,27.03
2023-05-04T03:53:49.976Z,27.50
2023-05-04T03:56:19.936Z,24.13
2023-05-04T03:58:48.304Z,29.03
2023-05-04T04:01:21.087Z,27.23
2023-05-04T04:03:49.879Z,27.40
2023-05-04T04:06:20.516Z,26.50
2023-05-04T04:08:50.285Z,27.63
2023-05-04T04:11:18.686Z,28.40
2023-05-04T04:13:47.049Z,26.30
2023-05-04T04:16:16.330Z,26.77
2023-05-04T04:18:44.868Z,27.10
2023-05-04T04:21:13.329Z,29.43
2023-05-04T04:23:41.825Z,28.13
2023-05-04T04:26:11.664Z,29.67
2023-05-04T04:28:40.085Z,26.93
2023-05-04T04:31:09.018Z,27.00
2023-05-04T04:33:37.477Z,27.67
2023-05-04T04:36:05.830Z,28.37
2023-05-04T04:38:34.259Z,29.63
2023-05-04T04:41:02.636Z,25.00
2023-05-04T04:43:33.695Z,24.87
2023-05-04T04:46:02.188Z,24.33
2023-05-04T04:48:31.416Z,26.43
2023-05-04T04:50:59.764Z,26.10
2023-05-04T04:53:28.176Z,26.30
2023-05-04T04:55:56.625Z,25.47
2023-05-04T04:58:24.975Z,27.37
2023-05-04T05:00:56.214Z,24.53
2023-05-04T05:03:24.718Z,25.73
2023-05-04T05:05:53.070Z,24.47
2023-05-04T05:08:21.415Z,24.47
2023-05-04T05:10:51.035Z,23.43
2023-05-04T05:13:19.614Z,24.30
2023-05-04T05:15:48.144Z,24.53
2023-05-04T05:18:18.033Z,22.07
2023-05-04T05:20:46.404Z,22.77
2023-05-04T05:23:14.909Z,22.60
2023-05-04T05:25:43.821Z,22.40
2023-05-04T05:28:12.217Z,21.00
2023-05-04T05:30:40.776Z,22.37
2023-05-04T05:33:09.215Z,21.77
2023-05-04T05:35:39.125Z,21.40
2023-05-04T05:38:07.797Z,21.00
2023-05-04T05:40:36.176Z,20.47
2023-05-04T05:43:05.587Z,20.30
2023-05-04T05:45:33.948Z,20.57
2023-05-04T05:48:02.665Z,17.30
2023-05-04T05:50:31.179Z,20.13
2023-05-04T05:53:01.250Z,18.77
2023-05-04T05:55:29.641Z,18.93
2023-05-04T05:57:58.083Z,18.47
2023-05-04T06:00:27.706Z,18.80
2023-05-04T06:02:57.161Z,17.17
2023-05-04T06:05:25.817Z,18.20
2023-05-04T06:07:54.213Z,17.20
2023-05-04T06:10:23.960Z,17.50
2023-05-04T06:12:52.397Z,17.53
2023-05-04T06:15:21.176Z,18.13
2023-05-04T06:17:49.919Z,16.67
2023-05-04T06:20:18.747Z,17.53
2023-05-04T06:22:47.123Z,17.03
2023-05-04T06:25:15.574Z,16.43
2023-05-04T06:27:45.381Z,16.77
2023-05-04T06:30:14.320Z,17.10
2023-05-04T06:32:43.065Z,15.83
2023-05-04T06:35:11.760Z,15.37
2023-05-04T06:37:40.217Z,15.10
2023-05-04T06:40:09.702Z,14.40
2023-05-04T06:42:38.615Z,15.27
2023-05-04T06:45:09.278Z,15.20
2023-05-04T06:47:37.839Z,14.70
2023-05-04T06:50:09.564Z,14.27
2023-05-04T06:52:39.638Z,13.40
2023-05-04T06:55:08.626Z,13.07
2023-05-04T06:57:37.254Z,12.90
2023-05-04T07:00:06.446Z,12.63
2023-05-04T07:02:36.681Z,12.70
2023-05-04T07:05:05.188Z,12.87
2023-05-04T07:07:33.668Z,12.70
2023-05-04T07:10:02.427Z,12.63
2023-05-04T07:12:31.012Z,12.60
2023-05-04T07:14:59.426Z,11.73
2023-05-04T07:17:27.983Z,11.30
2023-05-04T07:19:57.938Z,11.23
2023-05-04T07:22:27.265Z,11.40
2023-05-04T07:24:56.807Z,11.43
2023-05-04T07:27:25.180Z,10.63
2023-05-04T07:29:53.608Z,9.80
2023-05-04T07:32:24.205Z,11.17
2023-05-04T07:34:52.957Z,10.77
2023-05-04T07:37:22.977Z,11.30
2023-05-04T07:39:52.531Z,11.70
2023-05-04T07:42:20.934Z,10.47
2023-05-04T07:44:49.390Z,9.53
2023-05-04T07:47:17.792Z,10.27
2023-05-04T07:49:46.672Z,10.57
2023-05-04T07:52:15.046Z,10.03
2023-05-04T07:54:44.872Z,9.93
2023-05-04T07:57:13.279Z,9.20
2023-05-04T07:59:41.676Z,9.70
2023-05-04T08:02:10.292Z,9.83
2023-05-04T08:04:38.797Z,8.67
2023-05-04T08:07:07.265Z,8.23
2023-05-04T08:09:35.724Z,7.83
2023-05-04T08:12:05.877Z,7.80
2023-05-04T08:14:35.759Z,6.90
2023-05-04T08:17:05.907Z,7.00
2023-05-04T08:19:34.353Z,6.67
2023-05-04T08:22:02.813Z,6.87
2023-05-04T08:24:31.667Z,7.17
2023-05-04T08:27:08.145Z,7.37
2023-05-04T08:29:39.126Z,7.47
2023-05-04T08:32:08.053Z,6.97
2023-05-04T08:34:37.505Z,7.27
2023-05-04T08:37:06.158Z,7.00
2023-05-04T08:39:34.591Z,7.30
2023-05-04T08:42:03.648Z,8.23
2023-05-04T08:44:32.214Z,8.50
2023-05-04T08:47:04.815Z,8.77
2023-05-04T08:49:34.552Z,6.78
2023-05-04T08:52:03.052Z,7.85
2023-05-04T08:54:31.635Z,8.25
2023-05-04T08:57:00.593Z,7.15
2023-05-04T08:59:30.295Z,6.97
2023-05-04T09:02:00.044Z,6.50
2023-05-04T09:04:32.300Z,5.87
2023-05-04T09:07:00.728Z,7.23
2023-05-04T09:09:31.652Z,6.73
2023-05-04T09:12:00.296Z,7.00
2023-05-04T09:14:34.584Z,7.53
2023-05-04T09:17:04.927Z,7.93
2023-05-04T09:19:35.201Z,7.17
2023-05-04T09:22:04.135Z,7.57
2023-05-04T09:24:32.797Z,7.10
2023-05-04T09:27:11.320Z,6.87
2023-05-04T09:29:40.763Z,6.83
2023-05-04T09:32:13.268Z,7.10
2023-05-04T09:34:53.181Z,7.17
2023-05-04T09:37:22.207Z,6.70
2023-05-04T09:39:57.480Z,7.68
2023-05-04T09:42:26.926Z,7.45
2023-05-04T09:45:02.256Z,6.20
2023-05-04T09:47:34.622Z,5.83
2023-05-04T09:50:14.664Z,7.07
2023-05-04T09:53:09.805Z,6.60
2023-05-04T09:55:38.520Z,5.78
2023-05-04T09:58:07.318Z,5.40
2023-05-04T10:00:37.155Z,6.80
2023-05-04T10:03:07.852Z,6.20
2023-05-04T10:05:41.019Z,6.00
2023-05-04T10:08:09.994Z,5.97
2023-05-04T10:10:40.682Z,5.70
2023-05-04T10:13:09.212Z,5.80
2023-05-04T10:15:37.886Z,5.55
2023-05-04T10:18:12.027Z,6.03
2023-05-04T10:20:48.435Z,5.85
2023-05-04T10:23:26.493Z,6.32
2023-05-04T10:26:13.300Z,6.25
2023-05-04T10:28:48.439Z,6.40
2023-05-04T10:31:17.931Z,6.18
2023-05-04T10:33:46.695Z,6.43
2023-05-04T10:36:16.482Z,6.25
2023-05-04T10:38:45.100Z,6.70
2023-05-04T10:41:17.099Z,6.47
2023-05-04T10:43:48.924Z,6.75
2023-05-04T10:46:18.240Z,6.22
2023-05-04T10:48:47.972Z,6.20
2023-05-04T10:51:21.236Z,5.60
2023-05-04T10:53:49.898Z,5.07
2023-05-04T10:56:24.904Z,5.90
2023-05-04T11:02:48.217Z,5.68
2023-05-04T11:05:20.240Z,5.35
2023-05-04T11:07:53.308Z,6.20
2023-05-04T11:10:22.920Z,4.65
2023-05-04T11:12:51.526Z,5.18
2023-05-04T11:15:20.241Z,5.50
2023-05-04T11:17:48.803Z,6.22
2023-05-04T11:20:25.979Z,5.18
2023-05-04T11:22:56.086Z,5.38
2023-05-04T11:25:28.725Z,5.32
2023-05-04T11:27:58.168Z,5.32
2023-05-04T11:30:33.521Z,5.53
2023-05-04T11:33:05.604Z,5.45
2023-05-04T11:35:34.585Z,4.60
2023-05-04T11:38:04.529Z,5.40
2023-05-04T11:40:32.936Z,4.55
2023-05-04T11:43:02.421Z,4.40
2023-05-04T11:45:32.488Z,6.32
2023-05-04T11:48:01.639Z,4.85
2023-05-04T11:50:31.484Z,4.80
2023-05-04T11:53:08.994Z,5.30
2023-05-04T11:55:38.111Z,6.40
2023-05-04T11:58:07.445Z,6.45
2023-05-04T12:00:38.881Z,6.53
2023-05-04T12:03:07.554Z,5.85
2023-05-04T12:05:37.637Z,5.78
2023-05-04T12:08:12.479Z,6.20
2023-05-04T12:18:29.871Z,6.50
2023-05-04T12:20:58.358Z,5.88
2023-05-04T12:23:28.178Z,5.75
2023-05-04T12:25:58.466Z,5.38
2023-05-04T12:28:27.782Z,6.10
2023-05-04T12:30:56.231Z,6.80
2023-05-04T12:33:25.201Z,7.18
2023-05-04T12:35:54.764Z,6.70
2023-05-04T12:38:23.389Z,6.70
2023-05-04T12:40:53.375Z,6.88
2023-05-04T12:43:23.119Z,6.13
2023-05-04T12:45:52.829Z,5.82
2023-05-04T12:48:21.930Z,6.22
2023-05-04T12:50:50.917Z,5.93
2023-05-04T12:53:22.286Z,6.97
2023-05-04T12:55:53.605Z,5.95
2023-05-04T12:58:22.076Z,5.68
2023-05-04T13:00:50.472Z,6.40
2023-05-04T13:03:19.362Z,5.93
2023-05-04T13:05:49.712Z,6.07
2023-05-04T13:08:18.383Z,5.50
2023-05-04T13:10:47.428Z,5.30
2023-05-04T13:13:17.974Z,6.47
2023-05-04T13:15:47.842Z,5.90
2023-05-04T13:18:16.343Z,5.22
2023-05-04T13:20:45.588Z,5.18
2023-05-04T13:23:14.043Z,6.00
2023-05-04T13:25:42.489Z,5.63
2023-05-04T13:28:10.907Z,5.35
2023-05-04T13:30:40.673Z,5.40
2023-05-04T13:37:03.001Z,5.63
2023-05-04T13:39:31.351Z,5.50
2023-05-04T13:41:59.677Z,5.28
2023-05-04T13:44:28.015Z,4.82
2023-05-04T13:46:58.228Z,5.75
2023-05-04T13:49:26.784Z,5.70
2023-05-04T13:51:56.663Z,5.10
2023-05-04T13:54:24.970Z,5.88
2023-05-04T13:56:53.404Z,5.13
2023-05-04T13:59:21.830Z,5.30
2023-05-04T14:01:50.603Z,4.55
2023-05-04T14:04:21.002Z,4.93
2023-05-04T14:06:50.737Z,5.03
2023-05-04T14:09:19.308Z,4.75
2023-05-04T14:11:48.445Z,4.88
2023-05-04T14:14:16.883Z,4.53
2023-05-04T14:16:45.302Z,4.32
2023-05-04T14:19:13.755Z,4.22
2023-05-04T14:21:43.474Z,4.60
2023-05-04T14:24:12.083Z,4.70
2023-05-04T14:26:40.562Z,4.65
2023-05-04T14:29:08.983Z,4.55
2023-05-04T14:31:37.738Z,4.90
2023-05-04T14:34:06.811Z,5.20
2023-05-04T14:36:35.237Z,5.10
2023-05-04T14:39:05.185Z,4.38
2023-05-04T14:41:35.544Z,5.07
2023-05-04T14:44:03.958Z,4.25
2023-05-04T14:46:32.497Z,5.20
2023-05-04T14:49:01.478Z,5.22
2023-05-04T14:51:33.556Z,6.55
2023-05-04T14:54:03.138Z,5.88
2023-05-04T14:56:33.132Z,5.72
2023-05-04T14:59:01.752Z,6.05
2023-05-04T15:01:30.253Z,5.03
2023-05-04T15:03:58.731Z,5.15
2023-05-04T15:09:00.870Z,5.47
2023-05-04T15:11:29.262Z,5.70
2023-05-04T15:13:59.266Z,5.63
2023-05-04T15:16:32.342Z,5.80
2023-05-04T15:19:00.912Z,5.18
2023-05-04T15:21:29.677Z,5.53
2023-05-04T15:23:58.084Z,5.72
2023-05-04T15:26:27.009Z,5.30
2023-05-04T15:28:55.409Z,5.70
2023-05-04T15:31:25.405Z,6.00
2023-05-04T15:33:54.236Z,6.38
2023-05-04T15:36:24.326Z,6.63
2023-05-04T15:38:52.740Z,6.18
2023-05-04T15:41:21.478Z,6.28
2023-05-04T15:43:49.891Z,6.40
2023-05-04T15:46:18.311Z,5.80
2023-05-04T15:48:48.180Z,6.28
2023-05-04T15:51:16.557Z,5.80
2023-05-04T15:53:44.970Z,5.90
2023-05-04T15:56:13.614Z,5.70
2023-05-04T15:58:42.012Z,5.22
2023-05-04T16:01:14.095Z,5.53
2023-05-04T16:03:43.021Z,5.70
2023-05-04T16:06:13.109Z,5.88
2023-05-04T16:08:41.472Z,5.75
2023-05-04T16:11:09.983Z,5.45
2023-05-04T16:13:38.698Z,5.88
2023-05-04T16:16:07.471Z,5.18
2023-05-04T16:18:35.886Z,5.13
2023-05-04T16:21:04.262Z,5.57
2023-05-04T16:23:34.019Z,5.85
2023-05-04T16:26:02.832Z,6.10
2023-05-04T16:28:31.397Z,6.65
2023-05-04T16:30:59.822Z,6.38
2023-05-04T16:33:28.291Z,6.20
2023-05-04T16:35:57.465Z,6.35
2023-05-04T16:38:25.868Z,6.10
2023-05-04T16:40:55.807Z,6.90
2023-05-04T16:43:24.270Z,6.57
2023-05-04T16:45:52.716Z,7.28
2023-05-04T16:48:21.279Z,7.03
2023-05-04T16:50:50.004Z,7.05
2023-05-04T16:53:18.475Z,6.95
2023-05-04T16:55:46.895Z,6.85
2023-05-04T16:58:17.029Z,6.55
2023-05-04T17:00:45.614Z,6.25
2023-05-04T17:03:14.314Z,6.50
2023-05-04T17:05:42.774Z,6.40
2023-05-04T17:08:12.590Z,5.97
2023-05-04T17:10:41.482Z,6.90
2023-05-04T17:13:09.993Z,7.03
2023-05-04T17:15:39.954Z,6.97
2023-05-04T17:18:08.860Z,7.95
2023-05-04T17:20:40.473Z,7.30
2023-05-04T17:23:08.925Z,7.15
2023-05-04T17:25:37.669Z,6.53
2023-05-04T17:28:06.552Z,6.75
2023-05-04T17:30:35.752Z,6.35
2023-05-04T17:33:05.669Z,6.70
2023-05-04T17:35:34.090Z,7.30
2023-05-04T17:38:02.448Z,6.97
2023-05-04T17:40:30.867Z,7.35
2023-05-04T17:43:00.278Z,6.38
2023-05-04T17:45:28.741Z,6.50
2023-05-04T17:47:57.275Z,6.53
2023-05-04T17:50:27.656Z,6.35
2023-05-04T17:52:56.972Z,6.72
2023-05-04T17:55:25.753Z,6.93
2023-05-04T17:57:54.596Z,6.68
2023-05-04T18:00:23.323Z,6.72
2023-05-04T18:02:52.189Z,6.72
2023-05-04T18:05:20.799Z,6.97
2023-05-04T18:07:50.710Z,6.75
2023-05-04T18:10:19.346Z,7.15
2023-05-04T18:12:48.093Z,6.90
2023-05-04T18:15:17.914Z,6.35
2023-05-04T18:17:46.422Z,7.15
2023-05-04T18:20:14.972Z,6.50
2023-05-04T18:22:43.507Z,6.82
2023-05-04T18:25:13.556Z,6.45
2023-05-04T18:27:41.989Z,6.85
2023-05-04T18:30:11.056Z,6.97
2023-05-04T18:32:39.439Z,6.40
2023-05-04T18:35:08.295Z,6.60
2023-05-04T18:37:36.647Z,5.82
2023-05-04T18:40:05.756Z,6.40
2023-05-04T18:42:35.493Z,6.10
2023-05-04T18:45:05.536Z,6.20
2023-05-04T18:47:33.961Z,6.38
2023-05-04T18:50:06.306Z,6.20
2023-05-04T18:52:34.923Z,6.15
2023-05-04T18:55:03.384Z,7.20
2023-05-04T18:57:31.808Z,6.03
2023-05-04T19:00:00.284Z,6.18
2023-05-04T19:02:31.591Z,6.30
2023-05-04T19:05:00.093Z,6.30
2023-05-04T19:07:28.540Z,6.20
2023-05-04T19:09:57.066Z,6.72
2023-05-04T19:12:25.502Z,5.90
2023-05-04T19:14:55.165Z,5.53
2023-05-04T19:17:23.860Z,6.00
2023-05-04T19:19:53.649Z,5.80
2023-05-04T19:22:22.036Z,5.90
2023-05-04T19:24:52.386Z,6.50
2023-05-04T19:27:20.817Z,6.27
2023-05-04T19:29:49.204Z,5.60
2023-05-04T19:32:24.382Z,5.97
2023-05-04T19:34:54.890Z,5.47
2023-05-04T19:37:23.271Z,6.30
2023-05-04T19:39:51.918Z,6.20
2023-05-04T19:42:20.332Z,5.60
2023-05-04T19:44:48.852Z,5.70
2023-05-04T19:47:17.287Z,5.77
2023-05-04T19:49:47.564Z,5.63
2023-05-04T19:52:17.376Z,5.47
2023-05-04T19:54:48.467Z,5.97
2023-05-04T19:57:17.020Z,5.77
2023-05-04T19:59:47.268Z,5.10
2023-05-04T20:02:15.968Z,5.40
2023-05-04T20:04:44.389Z,6.13
2023-05-04T20:07:12.774Z,5.77
2023-05-04T20:09:42.540Z,5.90
2023-05-04T20:12:11.469Z,6.10
2023-05-04T20:14:41.202Z,5.50
2023-05-04T20:17:13.201Z,5.63
2023-05-04T20:19:43.056Z,6.17
2023-05-04T20:22:12.943Z,5.53
2023-05-04T20:24:42.871Z,5.40
2023-05-04T20:27:11.481Z,5.53
2023-05-04T20:29:40.007Z,5.73
2023-05-04T20:32:09.208Z,5.07
2023-05-04T20:34:39.573Z,5.33
2023-05-04T20:37:08.120Z,5.77
2023-05-04T20:39:36.487Z,6.00
2023-05-04T20:42:08.392Z,6.03
2023-05-04T20:44:37.359Z,5.17
2023-05-04T20:47:05.852Z,5.60
2023-05-04T20:49:34.714Z,5.77
2023-05-04T20:52:04.314Z,5.77
2023-05-04T20:54:33.236Z,5.70
2023-05-04T20:57:01.771Z,6.00
2023-05-04T20:59:31.734Z,5.40
2023-05-04T21:02:00.112Z,6.10
2023-05-04T21:04:28.910Z,5.90
2023-05-04T21:06:58.744Z,5.57
2023-05-04T21:09:28.125Z,5.60
2023-05-04T21:11:56.582Z,5.23
2023-05-04T21:14:25.391Z,5.73
2023-05-04T21:16:55.981Z,5.87
2023-05-04T21:19:24.557Z,5.60
2023-05-04T21:21:53.359Z,6.20
2023-05-04T21:24:22.336Z,5.47
2023-05-04T21:26:51.064Z,5.30
2023-05-04T21:29:19.407Z,4.77
2023-05-04T21:31:47.884Z,5.43
2023-05-04T21:34:17.626Z,5.93
2023-05-04T21:36:46.026Z,5.83
2023-05-04T21:39:14.382Z,6.20
2023-05-04T21:41:42.776Z,5.40
2023-05-04T21:44:11.188Z,5.20
2023-05-04T21:46:39.644Z,5.43
2023-05-04T21:49:08.337Z,5.70
2023-05-04T21:51:38.192Z,5.60
2023-05-04T21:54:06.694Z,5.27
2023-05-04T21:56:35.075Z,5.70
2023-05-04T21:59:03.553Z,5.10
2023-05-04T22:01:31.966Z,5.83
2023-05-04T22:04:00.439Z,6.00
2023-05-04T22:06:28.832Z,5.80
2023-05-04T22:08:58.670Z,5.50
2023-05-04T22:11:27.060Z,5.73
2023-05-04T22:13:55.901Z,5.93
2023-05-04T22:16:24.529Z,5.00
2023-05-04T22:18:52.958Z,4.97
2023-05-04T22:21:21.369Z,5.17
2023-05-04T22:23:49.747Z,5.30
2023-05-04T22:26:19.510Z,5.77
2023-05-04T22:28:48.121Z,5.70
2023-05-04T22:31:16.558Z,6.17
2023-05-04T22:33:45.091Z,6.13
2023-05-04T22:36:13.481Z,5.63
2023-05-04T22:38:41.872Z,6.00
2023-05-04T22:41:10.284Z,6.73
2023-05-04T22:43:40.447Z,6.27
2023-05-04T22:46:08.858Z,6.33
2023-05-04T22:48:37.255Z,6.27
2023-05-04T22:51:05.775Z,6.40
2023-05-04T22:53:34.140Z,6.60
2023-05-04T22:56:02.613Z,6.60
2023-05-04T22:58:30.992Z,6.40
2023-05-04T23:01:00.881Z,6.93
2023-05-04T23:03:29.389Z,6.53
2023-05-04T23:06:00.760Z,6.07
2023-05-04T23:08:29.128Z,5.80
2023-05-04T23:10:57.563Z,6.37
2023-05-04T23:13:26.101Z,6.07
2023-05-04T23:15:54.611Z,6.60
2023-05-04T23:18:24.442Z,6.80
2023-05-04T23:20:52.838Z,6.27
2023-05-04T23:23:21.418Z,7.00
2023-05-04T23:25:49.802Z,6.90
2023-05-04T23:28:18.195Z,6.53
2023-05-04T23:30:46.589Z,6.47
2023-05-04T23:33:14.960Z,6.40
2023-05-04T23:35:44.676Z,6.90
2023-05-04T23:38:13.076Z,6.33
2023-05-04T23:40:41.782Z,6.97
2023-05-04T23:43:10.194Z,6.87
2023-05-04T23:45:38.665Z,6.50
2023-05-04T23:48:07.509Z,5.90
2023-05-04T23:50:35.918Z,6.77
2023-05-04T23:53:05.664Z,7.27
2023-05-04T23:55:34.086Z,7.13
2023-05-04T23:58:02.576Z,6.70
